createdAt,value
2017-11-17T00:00:06.155Z,1009.22
2017-11-17T00:01:08.651Z,1009.19
2017-11-17T00:02:05.367Z,1009.20
2017-11-17T00:03:05.352Z,1009.24
2017-11-17T00:04:05.343Z,1009.23
2017-11-17T00:05:06.331Z,1009.22
2017-11-17T00:06:05.319Z,1009.22
2017-11-17T00:07:05.302Z,1009.21
2017-11-17T00:08:05.282Z,1009.19
2017-11-17T00:09:05.284Z,1009.19
2017-11-17T00:10:05.254Z,1009.23
2017-11-17T00:11:05.288Z,1009.22
2017-11-17T00:12:05.215Z,1009.20
2017-11-17T00:13:05.213Z,1009.17
2017-11-17T00:14:05.194Z,1009.18
2017-11-17T00:15:05.208Z,1009.20
2017-11-17T00:16:05.172Z,1009.23
2017-11-17T00:17:05.183Z,1009.26
2017-11-17T00:18:05.138Z,1009.28
2017-11-17T00:19:05.117Z,1009.32
2017-11-17T00:20:05.103Z,1009.32
2017-11-17T00:21:05.089Z,1009.34
2017-11-17T00:22:05.139Z,1009.33
2017-11-17T00:23:05.068Z,1009.29
2017-11-17T00:24:05.044Z,1009.31
2017-11-17T00:25:05.036Z,1009.33
2017-11-17T00:26:05.013Z,1009.31
2017-11-17T00:27:04.999Z,1009.28
2017-11-17T00:28:05.124Z,1009.30
2017-11-17T00:29:04.967Z,1009.30
2017-11-17T00:30:04.975Z,1009.30
2017-11-17T00:31:04.935Z,1009.30
2017-11-17T00:32:04.924Z,1009.27
2017-11-17T00:33:04.914Z,1009.29
2017-11-17T00:34:04.953Z,1009.31
2017-11-17T00:35:04.888Z,1009.31
2017-11-17T00:36:04.862Z,1009.32
2017-11-17T00:37:05.082Z,1009.36
2017-11-17T00:38:04.834Z,1009.38
2017-11-17T00:39:04.840Z,1009.40
2017-11-17T00:40:04.803Z,1009.39
2017-11-17T00:41:04.808Z,1009.42
2017-11-17T00:42:04.783Z,1009.40
2017-11-17T00:43:04.804Z,1009.37
2017-11-17T00:44:04.747Z,1009.38
2017-11-17T00:45:04.738Z,1009.40
2017-11-17T00:46:04.737Z,1009.33
2017-11-17T00:47:04.705Z,1009.41
2017-11-17T00:48:04.690Z,1009.44
2017-11-17T00:49:04.726Z,1009.43
2017-11-17T00:50:04.655Z,1009.40
2017-11-17T00:51:04.648Z,1009.39
2017-11-17T00:52:04.688Z,1009.41
2017-11-17T00:53:04.624Z,1009.41
2017-11-17T00:54:04.598Z,1009.43
2017-11-17T00:55:04.601Z,1009.47
2017-11-17T00:56:04.566Z,1009.51
2017-11-17T00:57:04.559Z,1009.51
2017-11-17T00:58:04.685Z,1009.50
2017-11-17T00:59:04.534Z,1009.48
2017-11-17T01:00:04.522Z,1009.52
2017-11-17T01:01:04.500Z,1009.50
2017-11-17T01:02:04.492Z,1009.55
2017-11-17T01:03:04.474Z,1009.50
2017-11-17T01:04:04.509Z,1009.51
2017-11-17T01:05:04.436Z,1009.54
2017-11-17T01:06:04.452Z,1009.55
2017-11-17T01:07:04.407Z,1009.58
2017-11-17T01:08:04.398Z,1009.58
2017-11-17T01:09:04.380Z,1009.58
2017-11-17T01:10:04.453Z,1009.63
2017-11-17T01:11:04.356Z,1009.64
2017-11-17T01:12:04.334Z,1009.67
2017-11-17T01:13:04.320Z,1009.68
2017-11-17T01:14:04.315Z,1009.68
2017-11-17T01:15:04.289Z,1009.70
2017-11-17T01:16:04.315Z,1009.70
2017-11-17T01:17:04.269Z,1009.68
2017-11-17T01:18:04.262Z,1009.74
2017-11-17T01:19:04.230Z,1009.67
2017-11-17T01:20:04.232Z,1009.73
2017-11-17T01:21:04.203Z,1009.72
2017-11-17T01:22:04.290Z,1009.75
2017-11-17T01:23:04.172Z,1009.73
2017-11-17T01:24:04.163Z,1009.75
2017-11-17T01:25:04.147Z,1009.77
2017-11-17T01:26:04.159Z,1009.76
2017-11-17T01:27:04.113Z,1009.77
2017-11-17T01:28:04.191Z,1009.77
2017-11-17T01:29:04.098Z,1009.73
2017-11-17T01:30:04.070Z,1009.72
2017-11-17T01:31:04.051Z,1009.71
2017-11-17T01:32:04.042Z,1009.69
2017-11-17T01:33:04.079Z,1009.69
2017-11-17T01:34:04.474Z,1009.68
2017-11-17T01:35:04.006Z,1009.73
2017-11-17T01:36:03.979Z,1009.71
2017-11-17T01:37:03.977Z,1009.73
2017-11-17T01:38:03.956Z,1009.74
2017-11-17T01:39:03.934Z,1009.76
2017-11-17T01:40:03.954Z,1009.75
2017-11-17T01:41:03.934Z,1009.78
2017-11-17T01:42:03.905Z,1009.79
2017-11-17T01:43:03.883Z,1009.81
2017-11-17T01:44:03.850Z,1009.81
2017-11-17T01:45:03.957Z,1009.82
2017-11-17T01:46:03.830Z,1009.84
2017-11-17T01:47:03.835Z,1009.90
2017-11-17T01:48:03.799Z,1009.93
2017-11-17T01:49:03.800Z,1009.95
2017-11-17T01:50:03.777Z,1009.95
2017-11-17T01:51:03.794Z,1009.94
2017-11-17T01:52:03.738Z,1009.96
2017-11-17T01:53:03.754Z,1009.97
2017-11-17T01:54:03.719Z,1009.98
2017-11-17T01:55:03.686Z,1010.00
2017-11-17T01:56:03.836Z,1009.97
2017-11-17T01:57:03.671Z,1010.02
2017-11-17T01:58:03.659Z,1009.99
2017-11-17T01:59:03.645Z,1010.02
2017-11-17T02:00:03.655Z,1010.05
2017-11-17T02:01:03.610Z,1010.04
2017-11-17T02:02:03.757Z,1010.01
2017-11-17T02:03:03.564Z,1010.01
2017-11-17T02:04:03.550Z,1010.04
2017-11-17T02:05:03.537Z,1010.06
2017-11-17T02:06:03.518Z,1010.11
2017-11-17T02:07:03.511Z,1010.07
2017-11-17T02:08:03.539Z,1010.08
2017-11-17T02:09:03.484Z,1010.11
2017-11-17T02:10:03.459Z,1010.14
2017-11-17T02:11:03.513Z,1010.18
2017-11-17T02:12:03.434Z,1010.16
2017-11-17T02:13:03.419Z,1010.19
2017-11-17T02:14:03.542Z,1010.17
2017-11-17T02:15:03.386Z,1010.18
2017-11-17T02:16:03.383Z,1010.18
2017-11-17T02:17:03.794Z,1010.24
2017-11-17T02:18:03.342Z,1010.21
2017-11-17T02:19:03.329Z,1010.22
2017-11-17T02:20:03.305Z,1010.18
2017-11-17T02:21:03.303Z,1010.20
2017-11-17T02:22:03.633Z,1010.17
2017-11-17T02:23:03.306Z,1010.20
2017-11-17T02:24:03.268Z,1010.21
2017-11-17T02:25:03.244Z,1010.21
2017-11-17T02:26:03.217Z,1010.26
2017-11-17T02:27:03.217Z,1010.23
2017-11-17T02:28:03.436Z,1010.21
2017-11-17T02:29:03.181Z,1010.21
2017-11-17T02:30:03.168Z,1010.20
2017-11-17T02:31:03.153Z,1010.23
2017-11-17T02:32:03.147Z,1010.21
2017-11-17T02:33:03.138Z,1010.21
2017-11-17T02:34:03.141Z,1010.18
2017-11-17T02:35:03.098Z,1010.17
2017-11-17T02:36:03.076Z,1010.21
2017-11-17T02:37:03.077Z,1010.21
2017-11-17T02:38:03.034Z,1010.22
2017-11-17T02:39:03.079Z,1010.25
2017-11-17T02:40:03.005Z,1010.26
2017-11-17T02:41:03.000Z,1010.26
2017-11-17T02:42:02.993Z,1010.26
2017-11-17T02:43:02.966Z,1010.26
2017-11-17T02:44:02.956Z,1010.24
2017-11-17T02:45:03.015Z,1010.26
2017-11-17T02:46:02.918Z,1010.24
2017-11-17T02:47:02.895Z,1010.28
2017-11-17T02:48:02.876Z,1010.27
2017-11-17T02:49:02.872Z,1010.30
2017-11-17T02:50:02.869Z,1010.34
2017-11-17T02:51:02.871Z,1010.33
2017-11-17T02:52:02.817Z,1010.37
2017-11-17T02:53:02.831Z,1010.34
2017-11-17T02:54:02.885Z,1010.32
2017-11-17T02:55:02.790Z,1010.35
2017-11-17T02:56:02.795Z,1010.37
2017-11-17T02:57:02.765Z,1010.40
2017-11-17T02:58:02.741Z,1010.41
2017-11-17T02:59:02.719Z,1010.42
2017-11-17T03:00:03.304Z,1010.48
2017-11-17T03:01:02.690Z,1010.42
2017-11-17T03:02:02.713Z,1010.42
2017-11-17T03:03:02.671Z,1010.45
2017-11-17T03:04:02.655Z,1010.41
2017-11-17T03:05:02.690Z,1010.46
2017-11-17T03:06:02.619Z,1010.43
2017-11-17T03:07:02.596Z,1010.46
2017-11-17T03:08:02.588Z,1010.46
2017-11-17T03:09:02.624Z,1010.51
2017-11-17T03:10:02.563Z,1010.48
2017-11-17T03:11:02.574Z,1010.53
2017-11-17T03:12:02.520Z,1010.55
2017-11-17T03:13:02.528Z,1010.51
2017-11-17T03:14:02.543Z,1010.59
2017-11-17T03:15:02.492Z,1010.58
2017-11-17T03:16:02.465Z,1010.58
2017-11-17T03:17:02.442Z,1010.59
2017-11-17T03:18:02.449Z,1010.60
2017-11-17T03:19:02.463Z,1010.61
2017-11-17T03:20:02.418Z,1010.63
2017-11-17T03:21:02.388Z,1010.62
2017-11-17T03:22:02.384Z,1010.59
2017-11-17T03:23:02.361Z,1010.59
2017-11-17T03:24:02.404Z,1010.57
2017-11-17T03:25:02.325Z,1010.64
2017-11-17T03:26:02.330Z,1010.60
2017-11-17T03:27:02.296Z,1010.62
2017-11-17T03:28:02.305Z,1010.60
2017-11-17T03:29:02.272Z,1010.61
2017-11-17T03:30:02.315Z,1010.58
2017-11-17T03:31:02.244Z,1010.61
2017-11-17T03:32:02.245Z,1010.62
2017-11-17T03:33:03.185Z,1010.67
2017-11-17T03:34:02.232Z,1010.69
2017-11-17T03:35:02.210Z,1010.68
2017-11-17T03:36:02.158Z,1010.72
2017-11-17T03:37:02.150Z,1010.71
2017-11-17T03:38:02.134Z,1010.75
2017-11-17T03:39:02.122Z,1010.73
2017-11-17T03:40:02.152Z,1010.76
2017-11-17T03:41:02.088Z,1010.78
2017-11-17T03:42:02.061Z,1010.79
2017-11-17T03:43:02.047Z,1010.79
2017-11-17T03:44:02.041Z,1010.82
2017-11-17T03:45:02.032Z,1010.78
2017-11-17T03:46:02.087Z,1010.80
2017-11-17T03:47:01.994Z,1010.81
2017-11-17T03:48:01.975Z,1010.85
2017-11-17T03:49:01.968Z,1010.87
2017-11-17T03:50:01.963Z,1010.82
2017-11-17T03:51:01.927Z,1010.89
2017-11-17T03:52:02.337Z,1010.88
2017-11-17T03:53:01.908Z,1010.89
2017-11-17T03:54:01.905Z,1010.92
2017-11-17T03:55:01.869Z,1010.93
2017-11-17T03:56:01.859Z,1010.95
2017-11-17T03:57:02.784Z,1010.92
2017-11-17T03:58:02.150Z,1010.89
2017-11-17T03:59:01.802Z,1010.97
2017-11-17T04:00:01.805Z,1010.98
2017-11-17T04:01:01.784Z,1010.97
2017-11-17T04:02:01.750Z,1011.00
2017-11-17T04:03:01.733Z,1011.00
2017-11-17T04:04:01.786Z,1011.01
2017-11-17T04:05:01.721Z,1010.95
2017-11-17T04:06:01.687Z,1010.99
2017-11-17T04:07:01.687Z,1010.95
2017-11-17T04:08:01.671Z,1010.98
2017-11-17T04:09:01.653Z,1010.96
2017-11-17T04:10:01.668Z,1010.93
2017-11-17T04:11:01.883Z,1010.93
2017-11-17T04:12:01.592Z,1010.92
2017-11-17T04:13:01.589Z,1010.95
2017-11-17T04:14:01.563Z,1010.94
2017-11-17T04:15:01.564Z,1010.93
2017-11-17T04:16:01.543Z,1010.94
2017-11-17T04:17:01.653Z,1010.93
2017-11-17T04:18:01.510Z,1010.93
2017-11-17T04:19:01.498Z,1010.94
2017-11-17T04:20:01.476Z,1010.98
2017-11-17T04:21:01.474Z,1010.94
2017-11-17T04:22:01.437Z,1010.99
2017-11-17T04:23:01.488Z,1011.02
2017-11-17T04:24:01.411Z,1011.01
2017-11-17T04:25:01.398Z,1011.04
2017-11-17T04:26:01.409Z,1011.04
2017-11-17T04:27:01.369Z,1011.03
2017-11-17T04:28:01.362Z,1011.01
2017-11-17T04:29:01.495Z,1010.99
2017-11-17T04:30:01.315Z,1010.97
2017-11-17T04:31:01.305Z,1010.98
2017-11-17T04:32:01.308Z,1011.05
2017-11-17T04:33:01.806Z,1011.04
2017-11-17T04:34:01.252Z,1011.07
2017-11-17T04:35:01.382Z,1011.08
2017-11-17T04:36:01.220Z,1011.10
2017-11-17T04:37:01.868Z,1011.10
2017-11-17T04:38:01.202Z,1011.10
2017-11-17T04:39:01.169Z,1011.14
2017-11-17T04:40:01.161Z,1011.13
2017-11-17T04:41:01.574Z,1011.14
2017-11-17T04:42:01.140Z,1011.12
2017-11-17T04:43:01.122Z,1011.13
2017-11-17T04:44:01.103Z,1011.17
2017-11-17T04:45:01.090Z,1011.14
2017-11-17T04:46:01.073Z,1011.15
2017-11-17T04:47:01.225Z,1011.17
2017-11-17T04:48:01.039Z,1011.17
2017-11-17T04:49:01.010Z,1011.18
2017-11-17T04:50:01.014Z,1011.16
2017-11-17T04:51:01.126Z,1011.17
2017-11-17T04:52:00.982Z,1011.19
2017-11-17T04:53:01.012Z,1011.19
2017-11-17T04:54:00.931Z,1011.16
2017-11-17T04:55:00.939Z,1011.18
2017-11-17T04:56:00.914Z,1011.20
2017-11-17T04:57:00.933Z,1011.19
2017-11-17T04:58:00.881Z,1011.21
2017-11-17T04:59:00.858Z,1011.24
2017-11-17T05:00:00.839Z,1011.21
2017-11-17T05:01:00.832Z,1011.20
2017-11-17T05:02:00.860Z,1011.25
2017-11-17T05:03:00.808Z,1011.29
2017-11-17T05:04:00.790Z,1011.24
2017-11-17T05:05:00.822Z,1011.26
2017-11-17T05:06:00.762Z,1011.30
2017-11-17T05:07:00.855Z,1011.30
2017-11-17T05:08:00.717Z,1011.28
2017-11-17T05:09:00.724Z,1011.29
2017-11-17T05:10:00.683Z,1011.34
2017-11-17T05:11:00.663Z,1011.31
2017-11-17T05:12:00.660Z,1011.35
2017-11-17T05:13:00.700Z,1011.32
2017-11-17T05:14:00.626Z,1011.38
2017-11-17T05:15:00.604Z,1011.44
2017-11-17T05:16:00.596Z,1011.40
2017-11-17T05:17:00.579Z,1011.37
2017-11-17T05:18:00.568Z,1011.41
2017-11-17T05:19:00.916Z,1011.41
2017-11-17T05:20:00.518Z,1011.41
2017-11-17T05:21:00.502Z,1011.44
2017-11-17T05:22:00.501Z,1011.42
2017-11-17T05:23:00.522Z,1011.41
2017-11-17T05:24:00.565Z,1011.42
2017-11-17T05:25:00.578Z,1011.46
2017-11-17T05:26:00.443Z,1011.44
2017-11-17T05:27:00.422Z,1011.42
2017-11-17T05:28:00.405Z,1011.48
2017-11-17T05:29:00.388Z,1011.43
2017-11-17T05:30:00.370Z,1011.43
2017-11-17T05:31:00.400Z,1011.44
2017-11-17T05:32:00.338Z,1011.44
2017-11-17T05:33:00.335Z,1011.47
2017-11-17T05:34:00.331Z,1011.48
2017-11-17T05:35:00.290Z,1011.46
2017-11-17T05:36:00.348Z,1011.45
2017-11-17T05:37:00.259Z,1011.50
2017-11-17T05:38:00.237Z,1011.47
2017-11-17T05:39:00.232Z,1011.50
2017-11-17T05:40:00.220Z,1011.52
2017-11-17T05:41:00.180Z,1011.53
2017-11-17T05:42:00.310Z,1011.52
2017-11-17T05:43:00.191Z,1011.54
2017-11-17T05:44:00.143Z,1011.54
2017-11-17T05:45:00.134Z,1011.55
2017-11-17T05:46:00.126Z,1011.52
2017-11-17T05:47:00.099Z,1011.53
2017-11-17T05:48:00.137Z,1011.53
2017-11-17T05:49:00.051Z,1011.52
2017-11-17T05:50:00.045Z,1011.55
2017-11-17T05:51:00.035Z,1011.56
2017-11-17T05:52:00.016Z,1011.58
2017-11-17T05:53:00.018Z,1011.55
2017-11-17T05:54:00.357Z,1011.57
2017-11-17T05:54:59.970Z,1011.58
2017-11-17T05:55:59.965Z,1011.56
2017-11-17T05:56:59.941Z,1011.60
2017-11-17T05:57:59.944Z,1011.62
2017-11-17T05:58:59.894Z,1011.67
2017-11-17T06:00:00.020Z,1011.62
2017-11-17T06:00:59.883Z,1011.67
2017-11-17T06:01:59.858Z,1011.66
2017-11-17T06:02:59.844Z,1011.67
2017-11-17T06:03:59.849Z,1011.65
2017-11-17T06:04:59.805Z,1011.63
2017-11-17T06:05:59.851Z,1011.66
2017-11-17T06:06:59.780Z,1011.70
2017-11-17T06:07:59.749Z,1011.66
2017-11-17T06:08:59.770Z,1011.68
2017-11-17T06:09:59.717Z,1011.66
2017-11-17T06:10:59.718Z,1011.68
2017-11-17T06:11:59.746Z,1011.69
2017-11-17T06:12:59.681Z,1011.67
2017-11-17T06:13:59.666Z,1011.67
2017-11-17T06:14:59.674Z,1011.70
2017-11-17T06:15:59.658Z,1011.70
2017-11-17T06:16:59.616Z,1011.74
2017-11-17T06:17:59.650Z,1011.75
2017-11-17T06:18:59.655Z,1011.80
2017-11-17T06:19:59.562Z,1011.85
2017-11-17T06:20:59.546Z,1011.82
2017-11-17T06:21:59.535Z,1011.86
2017-11-17T06:22:59.517Z,1011.87
2017-11-17T06:23:59.504Z,1011.87
2017-11-17T06:24:59.677Z,1011.87
2017-11-17T06:25:59.465Z,1011.92
2017-11-17T06:26:59.442Z,1011.94
2017-11-17T06:27:59.470Z,1011.94
2017-11-17T06:28:59.415Z,1011.97
2017-11-17T06:29:59.418Z,1011.96
2017-11-17T06:30:59.482Z,1011.98
2017-11-17T06:31:59.383Z,1012.00
2017-11-17T06:32:59.352Z,1012.00
2017-11-17T06:33:59.340Z,1012.05
2017-11-17T06:34:59.323Z,1012.06
2017-11-17T06:35:59.306Z,1012.06
2017-11-17T06:36:59.437Z,1012.04
2017-11-17T06:37:59.278Z,1012.05
2017-11-17T06:38:59.264Z,1012.04
2017-11-17T06:39:59.231Z,1012.05
2017-11-17T06:40:59.228Z,1012.04
2017-11-17T06:41:59.212Z,1012.07
2017-11-17T06:42:59.262Z,1012.06
2017-11-17T06:43:59.184Z,1012.11
2017-11-17T06:44:59.163Z,1012.09
2017-11-17T06:45:59.146Z,1012.10
2017-11-17T06:46:59.122Z,1012.10
2017-11-17T06:47:59.125Z,1012.12
2017-11-17T06:48:59.156Z,1012.14
2017-11-17T06:49:59.066Z,1012.10
2017-11-17T06:50:59.073Z,1012.14
2017-11-17T06:51:59.055Z,1012.17
2017-11-17T06:52:59.029Z,1012.20
2017-11-17T06:53:59.014Z,1012.23
2017-11-17T06:54:59.035Z,1012.22
2017-11-17T06:55:58.969Z,1012.22
2017-11-17T06:56:58.972Z,1012.23
2017-11-17T06:57:58.949Z,1012.27
2017-11-17T06:58:58.925Z,1012.30
2017-11-17T06:59:58.983Z,1012.30
2017-11-17T07:00:58.898Z,1012.30
2017-11-17T07:01:58.877Z,1012.33
2017-11-17T07:02:58.872Z,1012.34
2017-11-17T07:03:58.851Z,1012.33
2017-11-17T07:04:58.832Z,1012.33
2017-11-17T07:05:58.981Z,1012.33
2017-11-17T07:06:58.812Z,1012.41
2017-11-17T07:07:58.779Z,1012.38
2017-11-17T07:08:58.770Z,1012.38
2017-11-17T07:09:58.778Z,1012.41
2017-11-17T07:10:58.740Z,1012.39
2017-11-17T07:11:58.752Z,1012.43
2017-11-17T07:12:58.711Z,1012.41
2017-11-17T07:13:58.685Z,1012.47
2017-11-17T07:14:58.809Z,1012.46
2017-11-17T07:15:58.662Z,1012.49
2017-11-17T07:16:58.652Z,1012.48
2017-11-17T07:17:58.613Z,1012.52
2017-11-17T07:18:58.611Z,1012.50
2017-11-17T07:19:58.596Z,1012.53
2017-11-17T07:20:58.962Z,1012.57
2017-11-17T07:21:58.573Z,1012.61
2017-11-17T07:22:58.531Z,1012.62
2017-11-17T07:23:58.515Z,1012.67
2017-11-17T07:24:58.509Z,1012.63
2017-11-17T07:25:58.501Z,1012.64
2017-11-17T07:26:58.627Z,1012.69
2017-11-17T07:27:58.454Z,1012.68
2017-11-17T07:28:58.450Z,1012.74
2017-11-17T07:29:58.417Z,1012.74
2017-11-17T07:30:58.401Z,1012.77
2017-11-17T07:31:58.386Z,1012.84
2017-11-17T07:32:58.520Z,1012.85
2017-11-17T07:33:58.351Z,1012.86
2017-11-17T07:34:58.346Z,1012.86
2017-11-17T07:35:58.356Z,1012.86
2017-11-17T07:36:58.319Z,1012.86
2017-11-17T07:37:58.296Z,1012.89
2017-11-17T07:38:58.352Z,1012.91
2017-11-17T07:39:58.265Z,1012.88
2017-11-17T07:40:58.248Z,1012.92
2017-11-17T07:41:58.226Z,1012.90
2017-11-17T07:42:58.223Z,1012.88
2017-11-17T07:43:58.202Z,1012.85
2017-11-17T07:44:58.218Z,1012.89
2017-11-17T07:45:58.159Z,1012.88
2017-11-17T07:46:58.149Z,1012.89
2017-11-17T07:47:58.118Z,1012.92
2017-11-17T07:48:58.118Z,1012.92
2017-11-17T07:49:58.163Z,1012.92
2017-11-17T07:50:58.076Z,1012.94
2017-11-17T07:51:58.056Z,1012.95
2017-11-17T07:52:58.057Z,1012.96
2017-11-17T07:53:58.025Z,1012.93
2017-11-17T07:54:58.031Z,1012.93
2017-11-17T07:55:58.434Z,1012.95
2017-11-17T07:56:57.997Z,1012.92
2017-11-17T07:57:57.964Z,1012.93
2017-11-17T07:58:57.994Z,1012.94
2017-11-17T07:59:57.931Z,1012.95
2017-11-17T08:00:57.913Z,1012.95
2017-11-17T08:01:57.968Z,1012.95
2017-11-17T08:02:57.900Z,1013.00
2017-11-17T08:03:57.869Z,1012.98
2017-11-17T08:04:57.847Z,1012.97
2017-11-17T08:05:57.840Z,1012.97
2017-11-17T08:06:57.808Z,1013.00
2017-11-17T08:07:57.915Z,1012.95
2017-11-17T08:14:19.728Z,1013.00
2017-11-17T08:14:52.843Z,1013.00
2017-11-17T08:15:52.469Z,1012.98
2017-11-17T08:30:42.495Z,1013.01
2017-11-17T08:31:42.698Z,1013.02
2017-11-17T08:32:42.717Z,1013.01
2017-11-17T08:33:42.285Z,1013.02
2017-11-17T08:34:41.928Z,1013.02
2017-11-17T08:35:42.688Z,1013.04
2017-11-17T08:36:42.476Z,1013.01
2017-11-17T08:37:41.851Z,1013.00
2017-11-17T08:38:41.799Z,1013.03
2017-11-17T08:39:41.764Z,1013.04
2017-11-17T08:40:41.752Z,1013.02
2017-11-17T08:41:41.745Z,1013.03
2017-11-17T08:42:41.881Z,1013.06
2017-11-17T08:43:41.709Z,1013.06
2017-11-17T08:44:41.694Z,1013.03
2017-11-17T08:45:41.683Z,1013.04
2017-11-17T08:46:41.659Z,1013.05
2017-11-17T08:48:02.718Z,1013.01
2017-11-17T08:48:41.618Z,1013.04
2017-11-17T08:49:41.629Z,1013.05
2017-11-17T08:50:41.584Z,1013.06
2017-11-17T08:51:41.580Z,1013.04
2017-11-17T08:52:41.548Z,1013.04
2017-11-17T08:53:41.622Z,1013.05
2017-11-17T08:54:41.525Z,1013.04
2017-11-17T08:55:41.514Z,1013.03
2017-11-17T08:56:41.554Z,1013.03
2017-11-17T08:57:41.488Z,1013.06
2017-11-17T08:58:41.457Z,1013.06
2017-11-17T08:59:41.513Z,1013.10
2017-11-17T09:00:41.430Z,1013.06
2017-11-17T09:01:41.414Z,1013.10
2017-11-17T09:02:41.440Z,1013.09
2017-11-17T09:03:41.403Z,1013.07
2017-11-17T09:04:41.509Z,1013.07
2017-11-17T09:05:41.469Z,1013.09
2017-11-17T09:06:41.327Z,1013.06
2017-11-17T09:07:41.308Z,1013.10
2017-11-17T09:08:41.298Z,1013.07
2017-11-17T09:09:41.290Z,1013.10
2017-11-17T09:10:41.255Z,1013.10
2017-11-17T09:11:41.285Z,1013.14
2017-11-17T09:12:41.228Z,1013.11
2017-11-17T09:13:41.213Z,1013.09
2017-11-17T09:14:41.254Z,1013.11
2017-11-17T09:15:41.182Z,1013.12
2017-11-17T09:16:41.161Z,1013.10
2017-11-17T09:17:41.222Z,1013.13
2017-11-17T09:18:41.128Z,1013.13
2017-11-17T09:19:41.117Z,1013.15
2017-11-17T09:20:41.106Z,1013.20
2017-11-17T09:21:41.069Z,1013.19
2017-11-17T09:22:41.081Z,1013.18
2017-11-17T09:23:41.125Z,1013.19
2017-11-17T09:24:41.069Z,1013.20
2017-11-17T09:25:41.201Z,1013.24
2017-11-17T09:26:41.011Z,1013.23
2017-11-17T09:27:41.001Z,1013.24
2017-11-17T09:28:41.001Z,1013.23
2017-11-17T09:29:41.098Z,1013.25
2017-11-17T09:30:40.936Z,1013.25
2017-11-17T09:31:40.948Z,1013.22
2017-11-17T09:32:40.914Z,1013.18
2017-11-17T09:33:40.897Z,1013.26
2017-11-17T09:39:23.552Z,1013.23
2017-11-17T09:40:23.455Z,1013.19
2017-11-17T09:41:23.353Z,1013.25
2017-11-17T09:42:23.339Z,1013.23
2017-11-17T09:43:23.372Z,1013.23
2017-11-17T09:44:23.291Z,1013.23
2017-11-17T09:45:23.333Z,1013.24
2017-11-17T09:46:23.278Z,1013.21
2017-11-17T09:47:23.271Z,1013.21
2017-11-17T09:48:23.240Z,1013.21
2017-11-17T09:49:23.266Z,1013.19
2017-11-17T09:50:23.219Z,1013.18
2017-11-17T09:51:23.291Z,1013.19
2017-11-17T09:52:23.378Z,1013.19
2017-11-17T09:53:23.316Z,1013.24
2017-11-17T09:54:24.168Z,1013.23
2017-11-17T09:55:23.178Z,1013.20
2017-11-17T09:56:23.225Z,1013.19
2017-11-17T09:57:56.815Z,1013.20
2017-11-17T09:58:23.833Z,1013.18
2017-11-17T09:59:23.717Z,1013.21
2017-11-17T10:00:23.816Z,1013.22
2017-11-17T10:01:23.857Z,1013.21
2017-11-17T10:02:23.919Z,1013.19
2017-11-17T10:03:23.493Z,1013.18
2017-11-17T10:04:22.975Z,1013.19
2017-11-17T10:05:22.965Z,1013.18
2017-11-17T10:06:22.936Z,1013.20
2017-11-17T10:07:26.939Z,1013.20
2017-11-17T10:08:22.917Z,1013.21
2017-11-17T10:09:22.924Z,1013.19
2017-11-17T10:10:22.966Z,1013.19
2017-11-17T10:11:22.869Z,1013.16
2017-11-17T10:12:22.923Z,1013.19
2017-11-17T10:13:22.821Z,1013.13
2017-11-17T10:14:22.808Z,1013.21
2017-11-17T10:15:22.794Z,1013.15
2017-11-17T10:16:22.793Z,1013.20
2017-11-17T10:17:22.763Z,1013.21
2017-11-17T10:18:22.793Z,1013.20
2017-11-17T10:19:22.739Z,1013.22
2017-11-17T10:20:22.740Z,1013.24
2017-11-17T10:21:22.697Z,1013.24
2017-11-17T10:22:22.721Z,1013.24
2017-11-17T10:23:22.681Z,1013.22
2017-11-17T10:24:22.658Z,1013.22
2017-11-17T10:25:22.660Z,1013.22
2017-11-17T10:26:22.619Z,1013.23
2017-11-17T10:27:22.758Z,1013.19
2017-11-17T10:28:22.591Z,1013.19
2017-11-17T10:29:22.622Z,1013.22
2017-11-17T10:30:22.567Z,1013.18
2017-11-17T10:31:22.560Z,1013.24
2017-11-17T10:32:22.556Z,1013.20
2017-11-17T10:33:22.782Z,1013.20
2017-11-17T10:34:22.491Z,1013.19
2017-11-17T10:35:22.482Z,1013.22
2017-11-17T10:36:22.475Z,1013.21
2017-11-17T10:37:22.458Z,1013.21
2017-11-17T10:38:22.438Z,1013.21
2017-11-17T10:39:22.561Z,1013.23
2017-11-17T10:40:22.405Z,1013.22
2017-11-17T10:41:22.405Z,1013.21
2017-11-17T10:42:22.371Z,1013.21
2017-11-17T10:43:22.351Z,1013.22
2017-11-17T10:44:22.339Z,1013.22
2017-11-17T10:45:22.478Z,1013.23
2017-11-17T10:46:22.330Z,1013.22
2017-11-17T10:47:22.300Z,1013.23
2017-11-17T10:48:22.294Z,1013.26
2017-11-17T10:49:22.258Z,1013.23
2017-11-17T10:50:22.253Z,1013.20
2017-11-17T10:51:22.298Z,1013.22
2017-11-17T10:52:22.228Z,1013.18
2017-11-17T10:53:22.212Z,1013.21
2017-11-17T10:54:22.182Z,1013.24
2017-11-17T10:55:22.168Z,1013.22
2017-11-17T10:56:22.168Z,1013.23
2017-11-17T10:57:22.197Z,1013.25
2017-11-17T10:58:22.128Z,1013.24
2017-11-17T10:59:22.108Z,1013.27
2017-11-17T11:00:22.088Z,1013.30
2017-11-17T11:01:22.090Z,1013.30
2017-11-17T11:02:22.065Z,1013.28
2017-11-17T11:03:22.128Z,1013.25
2017-11-17T11:04:22.037Z,1013.24
2017-11-17T11:05:22.007Z,1013.23
2017-11-17T11:06:22.002Z,1013.26
2017-11-17T11:07:21.988Z,1013.24
2017-11-17T11:08:21.964Z,1013.25
2017-11-17T11:09:22.015Z,1013.24
2017-11-17T11:10:21.944Z,1013.23
2017-11-17T11:11:21.919Z,1013.19
2017-11-17T11:12:21.917Z,1013.16
2017-11-17T11:13:21.902Z,1013.18
2017-11-17T11:14:21.885Z,1013.17
2017-11-17T11:15:21.996Z,1013.19
2017-11-17T11:16:21.846Z,1013.16
2017-11-17T11:17:21.838Z,1013.15
2017-11-17T11:18:21.824Z,1013.14
2017-11-17T11:19:21.827Z,1013.18
2017-11-17T11:20:21.785Z,1013.17
2017-11-17T11:21:21.839Z,1013.18
2017-11-17T11:22:21.762Z,1013.19
2017-11-17T11:23:21.731Z,1013.15
2017-11-17T11:24:21.736Z,1013.10
2017-11-17T11:25:21.695Z,1013.07
2017-11-17T11:26:21.696Z,1013.12
2017-11-17T11:27:21.823Z,1013.17
2017-11-17T11:28:21.662Z,1013.14
2017-11-17T11:29:21.639Z,1013.18
2017-11-17T11:30:21.636Z,1013.15
2017-11-17T11:31:21.611Z,1013.16
2017-11-17T11:32:21.609Z,1013.17
2017-11-17T11:33:21.640Z,1013.13
2017-11-17T11:34:21.572Z,1013.10
2017-11-17T11:35:21.565Z,1013.14
2017-11-17T11:36:21.548Z,1013.13
2017-11-17T11:37:21.530Z,1013.12
2017-11-17T11:38:21.504Z,1013.14
2017-11-17T11:39:21.635Z,1013.10
2017-11-17T11:40:21.485Z,1013.13
2017-11-17T11:41:21.452Z,1013.10
2017-11-17T11:42:21.449Z,1013.10
2017-11-17T11:43:21.437Z,1013.10
2017-11-17T11:44:21.416Z,1013.10
2017-11-17T11:45:21.446Z,1013.10
2017-11-17T11:46:21.396Z,1013.03
2017-11-17T11:47:21.379Z,1013.03
2017-11-17T11:48:21.377Z,1013.05
2017-11-17T11:49:21.337Z,1013.08
2017-11-17T11:50:21.396Z,1013.06
2017-11-17T11:51:21.332Z,1013.06
2017-11-17T11:52:21.315Z,1013.06
2017-11-17T11:53:45.703Z,1013.05
2017-11-17T12:02:40.306Z,1012.99
2017-11-17T12:03:59.499Z,1013.02
2017-11-17T12:04:40.544Z,1013.02
2017-11-17T12:05:40.198Z,1013.00
2017-11-17T12:06:40.601Z,1012.99
2017-11-17T12:07:40.747Z,1012.97
2017-11-17T12:08:40.119Z,1012.95
2017-11-17T12:09:40.097Z,1012.95
2017-11-17T12:10:40.079Z,1012.97
2017-11-17T12:11:40.078Z,1012.97
2017-11-17T12:12:40.201Z,1013.00
2017-11-17T12:13:40.089Z,1012.99
2017-11-17T12:14:40.035Z,1012.93
2017-11-17T12:15:40.049Z,1012.92
2017-11-17T12:16:39.995Z,1012.90
2017-11-17T12:17:40.121Z,1012.94
2017-11-17T12:18:39.962Z,1012.91
2017-11-17T12:19:39.939Z,1012.95
2017-11-17T12:20:39.934Z,1012.97
2017-11-17T12:21:39.927Z,1013.06
2017-11-17T12:22:39.912Z,1013.06
2017-11-17T12:23:40.047Z,1013.06
2017-11-17T12:24:39.867Z,1013.06
2017-11-17T12:25:39.852Z,1013.07
2017-11-17T12:26:39.857Z,1013.10
2017-11-17T12:27:39.822Z,1013.07
2017-11-17T12:28:39.825Z,1013.03
2017-11-17T12:29:39.873Z,1013.12
2017-11-17T12:30:39.786Z,1013.12
2017-11-17T12:31:39.757Z,1013.09
2017-11-17T12:32:39.757Z,1013.05
2017-11-17T12:33:39.743Z,1013.05
2017-11-17T12:34:39.714Z,1013.05
2017-11-17T12:35:39.866Z,1013.09
2017-11-17T12:36:39.720Z,1013.03